Time;durP1;ratioP1;P1;durP2;ratioP2;P2;SDS_P1;SDS_P2;PMS_P1;PMS_P2;Temp;Humidity;BMP_temperature;BMP_pressure;BME280_temperature;BME280_humidity;BME280_pressure;Samples;Min_cycle;Max_cycle;Signal;HPM_P1;HPM_P2
2023/09/19 00:00:25;;;;;;;3.00;0.90;;;18.40;99.90;;;;;;4973415;28;20598;-74
2023/09/19 00:02:59;;;;;;;2.80;1.00;;;18.40;99.90;;;;;;4973295;28;20653;-74
2023/09/19 00:05:28;;;;;;;3.70;1.00;;;18.40;99.90;;;;;;4974929;28;20689;-74
2023/09/19 00:07:58;;;;;;;2.97;0.80;;;18.40;99.90;;;;;;4973736;28;20590;-74
2023/09/19 00:10:26;;;;;;;4.43;1.00;;;18.40;99.90;;;;;;4974909;28;20952;-74
2023/09/19 00:12:55;;;;;;;4.60;1.03;;;18.40;99.90;;;;;;4973312;28;20591;-73
2023/09/19 00:15:24;;;;;;;4.77;1.00;;;18.40;99.90;;;;;;4974671;28;20663;-73
2023/09/19 00:17:52;;;;;;;6.00;1.20;;;18.30;99.90;;;;;;4957448;28;20622;-74
2023/09/19 00:20:18;;;;;;;3.50;1.07;;;18.40;99.90;;;;;;4974601;28;20590;-74
2023/09/19 00:22:44;;;;;;;7.03;1.10;;;18.30;99.90;;;;;;4973011;28;20641;-74
2023/09/19 00:25:11;;;;;;;5.93;1.20;;;18.30;99.90;;;;;;4957221;28;20618;-73
2023/09/19 00:27:43;;;;;;;3.47;0.80;;;18.30;99.90;;;;;;4957101;28;20587;-73
2023/09/19 00:30:19;;;;;;;2.53;0.90;;;18.30;99.90;;;;;;4974364;28;20603;-73
2023/09/19 00:32:47;;;;;;;5.03;1.27;;;18.30;99.90;;;;;;4974235;28;20594;-74
2023/09/19 00:35:16;;;;;;;4.80;1.10;;;18.30;99.90;;;;;;4973014;28;20666;-74
2023/09/19 00:37:42;;;;;;;1.60;0.83;;;18.30;99.90;;;;;;4974226;28;20589;-73
2023/09/19 00:40:15;;;;;;;4.80;0.90;;;18.30;99.90;;;;;;4972811;28;20690;-73
2023/09/19 00:42:44;;;;;;;6.60;1.33;;;18.30;99.90;;;;;;4956498;28;20646;-73
2023/09/19 00:45:11;;;;;;;3.90;1.20;;;18.30;99.90;;;;;;4956635;28;20654;-73
2023/09/19 00:47:40;;;;;;;5.40;1.00;;;18.20;99.90;;;;;;4972885;28;20684;-73
2023/09/19 00:50:09;;;;;;;4.60;0.93;;;18.20;99.90;;;;;;4973984;28;21166;-73
2023/09/19 00:52:38;;;;;;;4.73;1.00;;;18.20;99.90;;;;;;4966404;28;20598;-74
2023/09/19 00:55:08;;;;;;;3.17;0.90;;;18.20;99.90;;;;;;4955388;28;20629;-73
2023/09/19 00:57:36;;;;;;;3.33;1.10;;;18.20;99.90;;;;;;4956565;28;20594;-74
2023/09/19 01:00:08;;;;;;;4.73;1.10;;;18.20;99.90;;;;;;4973816;28;20686;-73
2023/09/19 01:02:37;;;;;;;3.50;1.23;;;18.20;99.90;;;;;;4956330;28;20639;-74
2023/09/19 01:05:06;;;;;;;3.53;1.10;;;18.20;99.90;;;;;;4962802;28;21052;-74
2023/09/19 01:07:35;;;;;;;4.10;1.17;;;18.20;99.90;;;;;;4937720;29;21151;-74
2023/09/19 01:10:09;;;;;;;5.27;1.70;;;18.20;99.90;;;;;;4953220;29;20588;-74
2023/09/19 01:13:05;;;;;;;3.67;1.20;;;18.30;99.90;;;;;;4951962;28;20588;-74
2023/09/19 01:15:46;;;;;;;4.17;1.10;;;18.30;99.90;;;;;;4953184;29;20671;-74
2023/09/19 01:18:35;;;;;;;2.70;1.03;;;18.30;99.90;;;;;;4952734;29;20971;-74
2023/09/19 01:21:15;;;;;;;4.20;0.90;;;18.40;99.90;;;;;;4946176;28;20701;-74
2023/09/19 01:23:56;;;;;;;3.57;0.80;;;18.40;99.90;;;;;;4973392;28;20585;-74
2023/09/19 01:26:46;;;;;;;4.73;0.90;;;18.50;99.90;;;;;;4972216;28;20611;-74
2023/09/19 01:29:29;;;;;;;4.90;0.90;;;18.40;99.90;;;;;;4973277;28;20719;-74
2023/09/19 01:32:04;;;;;;;4.00;1.00;;;18.40;99.90;;;;;;4971679;28;20591;-74
2023/09/19 01:34:47;;;;;;;4.67;1.00;;;18.40;99.90;;;;;;4972122;28;20618;-74
2023/09/19 01:37:14;;;;;;;5.60;1.00;;;18.40;99.90;;;;;;4973085;28;20618;-74
2023/09/19 01:39:40;;;;;;;3.67;1.50;;;18.40;99.90;;;;;;4973220;28;20583;-74
2023/09/19 01:42:37;;;;;;;3.80;1.00;;;18.40;99.90;;;;;;4971535;28;20697;-74
2023/09/19 01:45:32;;;;;;;3.40;1.00;;;18.40;99.90;;;;;;4972949;28;20619;-74
2023/09/19 01:48:09;;;;;;;3.20;0.80;;;18.30;99.90;;;;;;4973020;28;20627;-74
2023/09/19 01:51:05;;;;;;;3.60;0.90;;;18.30;99.90;;;;;;4972925;28;21176;-74
2023/09/19 01:53:52;;;;;;;3.97;1.00;;;18.30;99.90;;;;;;4971436;28;20638;-74
2023/09/19 01:56:35;;;;;;;3.80;0.90;;;18.30;99.90;;;;;;4971660;28;20657;-74
2023/09/19 01:59:09;;;;;;;3.60;1.10;;;18.30;99.90;;;;;;4955394;28;21176;-74
2023/09/19 02:01:37;;;;;;;8.93;2.50;;;18.30;99.90;;;;;;4971599;28;20643;-73
2023/09/19 02:04:04;;;;;;;5.27;1.10;;;18.30;99.90;;;;;;4955132;28;20587;-74
2023/09/19 02:06:33;;;;;;;4.40;1.10;;;18.30;99.90;;;;;;4971331;28;20603;-73
2023/09/19 02:08:59;;;;;;;4.67;1.00;;;18.40;99.90;;;;;;4955148;28;20671;-74
2023/09/19 02:11:25;;;;;;;4.90;1.00;;;18.30;99.90;;;;;;4971429;28;20639;-73
2023/09/19 02:13:54;;;;;;;8.30;1.17;;;18.30;99.90;;;;;;4939031;28;20598;-74
2023/09/19 02:16:20;;;;;;;6.67;1.83;;;18.30;99.90;;;;;;4955009;28;20635;-74
2023/09/19 02:18:49;;;;;;;5.50;1.40;;;18.30;99.90;;;;;;4971373;28;20615;-73
2023/09/19 02:21:16;;;;;;;2.53;1.00;;;18.30;99.90;;;;;;4971146;28;20654;-74
2023/09/19 02:23:44;;;;;;;5.10;1.27;;;18.30;99.90;;;;;;4954772;28;20598;-73
2023/09/19 02:26:11;;;;;;;3.17;0.93;;;18.40;99.90;;;;;;4947144;28;20702;-73
2023/09/19 02:28:37;;;;;;;2.90;1.17;;;18.30;99.90;;;;;;4955165;28;20611;-73
2023/09/19 02:31:05;;;;;;;4.50;1.00;;;18.30;99.90;;;;;;4970878;28;20583;-73
2023/09/19 02:33:32;;;;;;;3.80;1.10;;;18.30;99.90;;;;;;4954684;28;20184;-74
2023/09/19 02:35:59;;;;;;;3.00;0.90;;;18.30;99.90;;;;;;4954279;28;20623;-73
2023/09/19 02:38:25;;;;;;;4.20;1.10;;;18.30;99.90;;;;;;4952948;29;21005;-74
2023/09/19 02:40:52;;;;;;;8.03;1.40;;;18.30;99.90;;;;;;4952798;29;20596;-74
2023/09/19 02:43:19;;;;;;;6.07;1.17;;;18.30;99.90;;;;;;4951244;29;20588;-73
2023/09/19 02:45:49;;;;;;;1.90;0.80;;;18.30;99.90;;;;;;4951500;29;21215;-73
2023/09/19 02:48:16;;;;;;;4.00;1.13;;;18.30;99.90;;;;;;4946140;28;20639;-73
2023/09/19 02:50:44;;;;;;;5.90;1.73;;;18.30;99.90;;;;;;4970689;28;20950;-73
2023/09/19 02:53:12;;;;;;;4.47;0.97;;;18.20;99.90;;;;;;4970407;28;20682;-73
2023/09/19 02:55:40;;;;;;;4.73;1.10;;;18.20;99.90;;;;;;4954660;28;21359;-73
2023/09/19 02:58:11;;;;;;;7.20;1.17;;;18.20;99.90;;;;;;4970608;28;20679;-73
2023/09/19 03:00:37;;;;;;;4.13;1.63;;;18.20;99.90;;;;;;4970527;28;20962;-74
2023/09/19 03:03:05;;;;;;;4.67;1.00;;;18.20;99.90;;;;;;4938179;28;20610;-73
2023/09/19 03:05:32;;;;;;;4.90;1.17;;;18.20;99.90;;;;;;4970561;28;20742;-73
2023/09/19 03:08:00;;;;;;;3.57;1.30;;;18.20;99.90;;;;;;4970341;28;20610;-73
2023/09/19 03:10:27;;;;;;;3.70;1.03;;;18.20;99.90;;;;;;4958705;28;21160;-73
2023/09/19 03:12:54;;;;;;;4.90;1.00;;;18.20;99.90;;;;;;4950983;29;20611;-74
2023/09/19 03:15:21;;;;;;;7.13;1.10;;;18.10;99.90;;;;;;4951141;29;20632;-73
2023/09/19 03:17:49;;;;;;;4.90;1.20;;;18.10;99.90;;;;;;4942178;28;20587;-73
2023/09/19 03:20:20;;;;;;;4.53;1.30;;;18.10;99.90;;;;;;4954383;28;20650;-73
2023/09/19 03:22:48;;;;;;;2.50;0.90;;;18.10;99.90;;;;;;4970145;28;20642;-73
2023/09/19 03:25:17;;;;;;;6.83;1.10;;;18.00;99.90;;;;;;4970373;28;20715;-74
2023/09/19 03:27:44;;;;;;;4.37;1.00;;;18.00;99.90;;;;;;4970168;28;20583;-74
2023/09/19 03:30:13;;;;;;;5.67;1.63;;;18.00;99.90;;;;;;4954061;28;20587;-74
2023/09/19 03:32:47;;;;;;;3.60;1.07;;;18.00;99.90;;;;;;5009855;23;20674;-81
2023/09/19 03:35:14;;;;;;;4.80;1.43;;;17.90;99.90;;;;;;4957944;29;20631;-80
2023/09/19 03:37:44;;;;;;;4.83;0.90;;;17.90;99.90;;;;;;4968756;28;20601;-80
2023/09/19 03:40:14;;;;;;;3.90;1.10;;;17.90;99.90;;;;;;4957756;29;20589;-80
2023/09/19 03:42:41;;;;;;;6.80;1.67;;;17.80;99.90;;;;;;4954278;29;20661;-80
2023/09/19 03:45:15;;;;;;;7.63;1.20;;;17.80;99.90;;;;;;4945927;29;20579;-80
2023/09/19 03:47:51;;;;;;;6.43;1.30;;;17.80;99.90;;;;;;4945341;29;20596;-80
2023/09/19 03:50:19;;;;;;;3.80;0.80;;;17.80;99.90;;;;;;4969827;29;20629;-80
2023/09/19 03:52:51;;;;;;;6.80;1.20;;;17.80;99.90;;;;;;4955800;29;20610;-80
2023/09/19 03:55:17;;;;;;;5.33;1.00;;;17.70;99.90;;;;;;4965745;29;20592;-80
2023/09/19 03:57:49;;;;;;;4.60;1.27;;;17.70;99.90;;;;;;4942779;29;20592;-80
2023/09/19 04:00:18;;;;;;;5.67;0.90;;;17.70;99.90;;;;;;4956399;29;20616;-80
2023/09/19 04:02:51;;;;;;;4.33;1.00;;;17.70;99.90;;;;;;4943538;29;20991;-80
2023/09/19 04:05:20;;;;;;;5.33;1.07;;;17.70;99.90;;;;;;4965434;29;20595;-80
2023/09/19 04:07:46;;;;;;;4.13;1.00;;;17.70;99.90;;;;;;4968374;29;20589;-80
2023/09/19 04:10:14;;;;;;;9.17;1.20;;;17.70;99.90;;;;;;4959747;29;20626;-80
2023/09/19 04:12:43;;;;;;;11.27;1.93;;;17.70;99.90;;;;;;4965181;29;20611;-80
2023/09/19 04:15:13;;;;;;;5.90;1.30;;;17.60;99.90;;;;;;4976229;28;20586;-79
2023/09/19 04:17:39;;;;;;;4.73;1.33;;;17.60;99.90;;;;;;4961242;29;20664;-80
2023/09/19 04:20:12;;;;;;;5.80;1.30;;;17.60;99.90;;;;;;4976353;29;20611;-79
2023/09/19 04:22:43;;;;;;;7.07;1.57;;;17.60;99.90;;;;;;4959145;29;20635;-81
2023/09/19 04:25:10;;;;;;;5.60;1.20;;;17.60;99.90;;;;;;4957669;29;20580;-80
2023/09/19 04:27:36;;;;;;;4.50;1.37;;;17.60;99.90;;;;;;4975284;29;20611;-80
2023/09/19 04:30:09;;;;;;;5.93;1.13;;;17.60;99.90;;;;;;4960828;29;20602;-79
2023/09/19 04:32:42;;;;;;;5.03;1.20;;;17.60;99.90;;;;;;4977858;28;20635;-79
2023/09/19 04:35:11;;;;;;;7.60;1.30;;;17.60;99.90;;;;;;4978414;29;20576;-80
2023/09/19 04:37:39;;;;;;;4.63;1.37;;;17.60;99.90;;;;;;4965094;29;20586;-79
2023/09/19 04:40:17;;;;;;;4.50;2.10;;;17.60;99.90;;;;;;4950066;29;20579;-80
2023/09/19 04:42:44;;;;;;;4.83;1.00;;;17.60;99.90;;;;;;4960060;29;20635;-79
2023/09/19 04:45:10;;;;;;;8.57;2.10;;;17.60;99.90;;;;;;4978971;28;20576;-80
2023/09/19 04:47:39;;;;;;;7.50;1.87;;;17.60;99.90;;;;;;4945680;29;20594;-80
2023/09/19 04:50:13;;;;;;;4.03;1.00;;;17.60;99.90;;;;;;4963420;29;20594;-80
2023/09/19 04:52:44;;;;;;;5.10;1.40;;;17.50;99.90;;;;;;4977827;29;20639;-80
2023/09/19 04:55:16;;;;;;;6.63;1.10;;;17.50;99.90;;;;;;4980072;29;20588;-80
2023/09/19 04:57:47;;;;;;;6.00;1.33;;;17.50;99.90;;;;;;4980537;28;20576;-80
2023/09/19 05:00:17;;;;;;;5.93;1.50;;;17.50;99.90;;;;;;4961681;29;20604;-80
2023/09/19 05:02:44;;;;;;;4.93;1.20;;;17.50;99.90;;;;;;4942216;29;20699;-79
2023/09/19 05:05:11;;;;;;;6.67;1.40;;;17.50;99.90;;;;;;4975562;29;20584;-80
2023/09/19 05:07:40;;;;;;;4.73;1.20;;;17.50;99.90;;;;;;4959248;29;20588;-80
2023/09/19 05:10:07;;;;;;;6.67;1.30;;;17.50;99.90;;;;;;4974112;29;20584;-80
2023/09/19 05:12:36;;;;;;;6.23;1.37;;;17.50;99.90;;;;;;4972234;29;20636;-80
2023/09/19 05:15:08;;;;;;;4.50;1.50;;;17.50;99.90;;;;;;4967096;29;20593;-80
2023/09/19 05:17:39;;;;;;;6.50;1.60;;;17.50;99.90;;;;;;4965918;29;20603;-80
2023/09/19 05:20:15;;;;;;;5.17;1.13;;;17.50;99.90;;;;;;4957078;29;20670;-80
2023/09/19 05:22:46;;;;;;;3.77;1.10;;;17.50;99.90;;;;;;4977151;29;20643;-80
2023/09/19 05:25:17;;;;;;;5.27;1.40;;;17.50;99.90;;;;;;4944134;29;20612;-79
2023/09/19 05:27:43;;;;;;;5.27;1.20;;;17.40;99.90;;;;;;4972899;29;20581;-80
2023/09/19 05:30:10;;;;;;;2.60;0.83;;;17.40;99.90;;;;;;4952933;29;20597;-80
2023/09/19 05:32:36;;;;;;;9.20;1.13;;;17.40;99.90;;;;;;4966047;29;20658;-80
2023/09/19 05:35:03;;;;;;;5.83;1.40;;;17.40;99.90;;;;;;4968566;29;20621;-80
2023/09/19 05:37:29;;;;;;;11.33;1.70;;;17.40;99.90;;;;;;4933932;29;20192;-80
2023/09/19 05:39:55;;;;;;;10.23;1.10;;;17.40;99.90;;;;;;4964919;29;20659;-80
2023/09/19 05:42:21;;;;;;;4.33;1.00;;;17.50;99.90;;;;;;4950872;29;20647;-80
2023/09/19 05:44:46;;;;;;;6.10;1.47;;;17.50;99.90;;;;;;4956525;29;20182;-80
2023/09/19 05:47:12;;;;;;;4.93;1.57;;;17.50;99.90;;;;;;4961935;29;20683;-80
2023/09/19 05:49:38;;;;;;;3.63;1.20;;;17.50;99.90;;;;;;4943140;29;20187;-79
2023/09/19 05:52:06;;;;;;;5.80;1.13;;;17.60;99.90;;;;;;4944380;29;20596;-80
2023/09/19 05:54:34;;;;;;;5.20;1.13;;;17.60;99.90;;;;;;4964359;29;20188;-80
2023/09/19 05:57:01;;;;;;;4.77;1.20;;;17.60;99.90;;;;;;4930813;28;20631;-80
2023/09/19 05:59:27;;;;;;;6.17;1.50;;;17.70;99.90;;;;;;4963950;29;20590;-80
2023/09/19 06:01:53;;;;;;;8.60;1.83;;;17.70;99.90;;;;;;4948732;29;20754;-81
2023/09/19 06:04:19;;;;;;;5.87;1.90;;;17.70;99.90;;;;;;4945173;29;21462;-79
2023/09/19 06:06:45;;;;;;;6.70;2.40;;;17.80;99.90;;;;;;4957639;29;20184;-79
2023/09/19 06:09:11;;;;;;;6.67;1.37;;;17.80;99.90;;;;;;4957103;29;20676;-80
2023/09/19 06:11:37;;;;;;;5.00;1.50;;;17.90;99.90;;;;;;4963395;28;20679;-80
2023/09/19 06:14:03;;;;;;;7.07;1.20;;;17.90;99.90;;;;;;4938238;29;20692;-80
2023/09/19 06:16:31;;;;;;;8.67;1.30;;;18.00;99.90;;;;;;4948875;29;20623;-80
2023/09/19 06:18:59;;;;;;;8.83;2.00;;;18.10;99.90;;;;;;4962233;29;20608;-80
2023/09/19 06:21:26;;;;;;;6.97;1.47;;;18.10;99.90;;;;;;4967764;29;21071;-80
2023/09/19 06:23:53;;;;;;;7.37;1.47;;;18.20;99.90;;;;;;4937695;29;20609;-80
2023/09/19 06:26:19;;;;;;;6.43;1.10;;;18.20;99.90;;;;;;4955133;29;20682;-79
2023/09/19 06:28:44;;;;;;;4.20;1.23;;;18.30;99.90;;;;;;4963308;29;20584;-78
2023/09/19 06:31:10;;;;;;;3.30;1.00;;;18.30;99.90;;;;;;4970594;29;20634;-79
2023/09/19 06:33:40;;;;;;;5.07;1.50;;;18.40;99.90;;;;;;4966888;29;20242;-79
2023/09/19 06:36:07;;;;;;;7.13;1.33;;;18.50;99.90;;;;;;4948231;29;20595;-80
2023/09/19 06:38:35;;;;;;;7.13;1.40;;;18.50;99.90;;;;;;4964036;29;20595;-79
2023/09/19 06:41:04;;;;;;;4.33;1.40;;;18.60;99.90;;;;;;4968405;29;20760;-79
2023/09/19 06:43:31;;;;;;;6.83;1.70;;;18.70;99.90;;;;;;4958076;29;20629;-79
2023/09/19 06:45:57;;;;;;;13.03;1.73;;;18.80;99.90;;;;;;4946004;29;20647;-78
2023/09/19 06:48:24;;;;;;;5.30;1.30;;;18.80;99.90;;;;;;4943702;29;20627;-79
2023/09/19 06:50:52;;;;;;;3.80;1.50;;;18.90;99.90;;;;;;4959816;29;20610;-79
2023/09/19 06:53:18;;;;;;;5.93;1.80;;;19.00;99.90;;;;;;4924764;29;20615;-78
2023/09/19 06:55:45;;;;;;;5.70;1.17;;;19.10;99.90;;;;;;4943698;29;20951;-79
2023/09/19 06:58:11;;;;;;;5.07;1.17;;;19.20;99.90;;;;;;4954704;29;20180;-79
2023/09/19 07:00:37;;;;;;;5.10;1.27;;;19.30;99.90;;;;;;4959293;29;20584;-79
2023/09/19 07:03:14;;;;;;;7.00;1.43;;;19.40;99.90;;;;;;4931362;29;20219;-78
2023/09/19 07:05:52;;;;;;;6.20;1.50;;;19.50;99.90;;;;;;4918291;29;20604;-79
2023/09/19 07:08:19;;;;;;;6.80;1.50;;;19.60;99.90;;;;;;4935906;29;20736;-79
2023/09/19 07:10:48;;;;;;;4.23;1.10;;;19.70;99.90;;;;;;4954505;29;20188;-80
2023/09/19 07:13:16;;;;;;;3.30;1.00;;;19.90;99.90;;;;;;4953832;29;20615;-80
2023/09/19 07:15:49;;;;;;;4.80;1.50;;;20.00;99.90;;;;;;4937578;29;20596;-78
2023/09/19 07:18:17;;;;;;;4.20;1.10;;;20.20;99.90;;;;;;4944495;29;20599;-79
2023/09/19 07:20:48;;;;;;;5.67;1.20;;;20.40;99.90;;;;;;4930479;29;20750;-78
2023/09/19 07:23:18;;;;;;;5.10;1.37;;;20.60;99.90;;;;;;4953925;29;20675;-78
2023/09/19 07:25:46;;;;;;;5.43;1.33;;;20.80;99.90;;;;;;4953419;29;20598;-80
2023/09/19 07:28:12;;;;;;;3.83;1.33;;;21.10;99.90;;;;;;4956017;29;20580;-78
2023/09/19 07:30:38;;;;;;;5.60;1.10;;;21.30;99.90;;;;;;4945800;29;20580;-77
2023/09/19 07:33:05;;;;;;;5.43;1.30;;;21.50;99.90;;;;;;4951371;29;20649;-77
2023/09/19 07:35:31;;;;;;;7.40;1.40;;;21.80;99.90;;;;;;4937059;29;20944;-78
2023/09/19 07:38:01;;;;;;;4.63;1.10;;;22.00;99.90;;;;;;4952838;29;20641;-78
2023/09/19 07:40:28;;;;;;;4.43;1.53;;;22.20;99.90;;;;;;4952628;29;20651;-78
2023/09/19 07:43:01;;;;;;;5.20;1.00;;;22.40;99.90;;;;;;4952317;29;20661;-79
2023/09/19 07:45:30;;;;;;;12.50;1.60;;;22.60;99.90;;;;;;4936525;29;20580;-77
2023/09/19 07:47:57;;;;;;;5.60;1.27;;;22.90;99.90;;;;;;4952396;29;20588;-79
2023/09/19 07:50:23;;;;;;;4.47;1.73;;;23.20;99.90;;;;;;4953687;29;20943;-78
2023/09/19 07:52:53;;;;;;;3.57;1.20;;;23.50;99.90;;;;;;4941821;29;20621;-79
2023/09/19 07:55:25;;;;;;;7.47;1.10;;;23.80;99.90;;;;;;4929264;29;20921;-79
2023/09/19 07:57:54;;;;;;;6.10;1.63;;;24.20;99.90;;;;;;4929125;29;20630;-78
2023/09/19 08:00:20;;;;;;;3.87;1.17;;;24.60;99.90;;;;;;4949743;29;20588;-78
2023/09/19 08:02:47;;;;;;;4.73;0.90;;;25.00;99.90;;;;;;4953197;29;21008;-78
2023/09/19 08:05:16;;;;;;;3.13;1.30;;;25.30;99.90;;;;;;4952742;29;20572;-77
2023/09/19 08:07:45;;;;;;;7.10;1.70;;;25.60;99.90;;;;;;4952075;29;20588;-78
2023/09/19 08:10:15;;;;;;;4.63;1.30;;;25.90;99.90;;;;;;4952072;29;20573;-78
2023/09/19 08:12:48;;;;;;;3.37;1.27;;;26.10;99.90;;;;;;4934528;29;20626;-78
2023/09/19 08:15:15;;;;;;;4.50;1.13;;;26.30;99.90;;;;;;4951981;29;20584;-78
2023/09/19 08:17:41;;;;;;;5.07;1.80;;;26.50;99.90;;;;;;4952139;29;21014;-78
2023/09/19 08:20:15;;;;;;;5.70;1.67;;;26.60;99.90;;;;;;4952234;28;20691;-77
2023/09/19 08:22:44;;;;;;;6.47;1.87;;;26.70;99.90;;;;;;4954983;29;20634;-77
2023/09/19 08:25:09;;;;;;;5.10;1.33;;;26.80;99.90;;;;;;4955217;29;20595;-77
2023/09/19 08:27:36;;;;;;;3.77;1.33;;;26.90;99.90;;;;;;4955254;29;20588;-77
2023/09/19 08:30:02;;;;;;;4.17;1.30;;;26.90;99.90;;;;;;4923993;29;20650;-78
2023/09/19 08:32:29;;;;;;;5.17;1.33;;;27.00;99.90;;;;;;4927573;29;20647;-78
2023/09/19 08:34:54;;;;;;;5.40;1.63;;;26.90;99.90;;;;;;4934118;29;20630;-79
2023/09/19 08:37:21;;;;;;;5.70;1.30;;;27.00;99.90;;;;;;4929489;29;20601;-79
2023/09/19 08:39:46;;;;;;;5.43;0.90;;;27.00;99.90;;;;;;4926604;29;20190;-78
2023/09/19 08:42:13;;;;;;;3.30;0.97;;;27.10;99.90;;;;;;4915452;29;20654;-78
2023/09/19 08:44:43;;;;;;;5.10;1.20;;;27.30;99.90;;;;;;4911928;29;20237;-79
2023/09/19 08:47:14;;;;;;;4.20;1.30;;;27.60;99.90;;;;;;4916137;29;20586;-78
2023/09/19 08:49:57;;;;;;;4.13;1.47;;;27.80;99.90;;;;;;4931736;29;20593;-79
2023/09/19 08:52:27;;;;;;;5.80;1.27;;;28.00;99.90;;;;;;4922044;29;20686;-79
2023/09/19 08:55:01;;;;;;;3.90;1.13;;;28.20;99.90;;;;;;4902654;29;20599;-78
2023/09/19 08:57:29;;;;;;;3.10;1.00;;;28.40;99.90;;;;;;4926904;29;20964;-79
2023/09/19 08:59:57;;;;;;;5.20;1.17;;;28.70;99.90;;;;;;4917141;29;20669;-79
2023/09/19 09:02:23;;;;;;;5.07;1.03;;;29.00;99.90;;;;;;4928015;29;20660;-79
2023/09/19 09:04:50;;;;;;;4.80;1.43;;;29.30;99.90;;;;;;4928302;29;20657;-79
2023/09/19 09:07:18;;;;;;;3.00;0.97;;;29.60;99.90;;;;;;4919046;29;20594;-79
2023/09/19 09:09:45;;;;;;;2.50;0.90;;;29.90;99.90;;;;;;4899522;29;20610;-77
2023/09/19 09:12:13;;;;;;;3.87;1.10;;;30.20;99.50;;;;;;4916316;29;21166;-77
2023/09/19 09:14:49;;;;;;;4.60;1.07;;;30.50;99.00;;;;;;4899364;29;21175;-78
2023/09/19 09:17:20;;;;;;;4.97;1.37;;;30.90;97.60;;;;;;4915022;29;20704;-78
2023/09/19 09:19:48;;;;;;;3.77;1.30;;;31.20;96.80;;;;;;4916313;29;20640;-78
2023/09/19 09:22:14;;;;;;;4.63;0.97;;;31.40;95.50;;;;;;4915906;29;20695;-78
2023/09/19 09:24:57;;;;;;;5.80;1.40;;;31.60;94.40;;;;;;4916095;29;20595;-78
2023/09/19 09:27:23;;;;;;;4.83;1.00;;;31.70;91.20;;;;;;4916091;29;20656;-78
2023/09/19 09:29:51;;;;;;;2.53;0.90;;;31.60;92.00;;;;;;4915847;29;20576;-78
2023/09/19 09:32:28;;;;;;;2.40;0.90;;;31.70;91.90;;;;;;4917999;29;20753;-78
2023/09/19 09:35:01;;;;;;;3.30;0.90;;;32.00;90.50;;;;;;4954203;29;20579;-78
2023/09/19 09:37:30;;;;;;;2.97;0.90;;;32.10;90.20;;;;;;4919230;29;20594;-77
2023/09/19 09:40:19;;;;;;;4.50;0.90;;;32.30;87.20;;;;;;4954375;29;20583;-78
2023/09/19 09:42:49;;;;;;;6.73;1.00;;;32.40;83.20;;;;;;4920497;29;20682;-78
2023/09/19 09:45:37;;;;;;;3.77;0.90;;;32.60;85.40;;;;;;4952837;29;20584;-77
2023/09/19 09:48:06;;;;;;;2.63;1.00;;;32.80;81.10;;;;;;4952612;29;20592;-77
2023/09/19 09:53:08;;;;;;;4.80;1.20;;;33.30;80.40;;;;;;4952207;29;20636;-77
2023/09/19 09:56:05;;;;;;;3.03;1.10;;;33.60;80.70;;;;;;4946030;29;20986;-77
2023/09/19 09:58:36;;;;;;;3.57;0.90;;;33.80;73.80;;;;;;4951452;29;20666;-78
2023/09/19 10:01:09;;;;;;;2.67;1.00;;;34.00;74.90;;;;;;4953136;29;20596;-78
2023/09/19 10:03:39;;;;;;;2.10;0.90;;;34.00;74.10;;;;;;4936232;29;20666;-78
2023/09/19 10:06:25;;;;;;;3.70;1.07;;;34.00;73.30;;;;;;4936496;29;20580;-77
2023/09/19 10:09:20;;;;;;;3.70;1.40;;;33.90;70.40;;;;;;4952171;29;20642;-77
2023/09/19 10:11:56;;;;;;;3.60;1.33;;;33.80;67.40;;;;;;4934769;29;20584;-77
2023/09/19 10:14:29;;;;;;;3.00;0.90;;;33.70;68.10;;;;;;4954384;29;20602;-78
2023/09/19 10:17:00;;;;;;;4.47;1.10;;;33.30;66.40;;;;;;4949827;29;20600;-78
2023/09/19 10:19:35;;;;;;;2.30;0.80;;;32.90;65.50;;;;;;4944913;29;20587;-78
2023/09/19 10:22:04;;;;;;;2.83;1.27;;;32.70;65.10;;;;;;4952434;29;20745;-77
2023/09/19 10:24:33;;;;;;;4.20;1.20;;;32.50;67.00;;;;;;4953429;29;20587;-77
2023/09/19 10:27:00;;;;;;;2.83;1.03;;;32.50;67.80;;;;;;4922942;29;20618;-78
2023/09/19 10:29:31;;;;;;;2.17;0.80;;;32.40;66.60;;;;;;4949143;29;20957;-78
2023/09/19 10:31:59;;;;;;;2.17;0.80;;;32.30;66.30;;;;;;4935491;29;20627;-78
2023/09/19 10:34:27;;;;;;;3.67;1.20;;;32.00;65.50;;;;;;4953954;29;20959;-78
2023/09/19 10:36:53;;;;;;;2.57;0.90;;;31.80;65.50;;;;;;4953858;29;20701;-78
2023/09/19 10:39:19;;;;;;;2.40;0.90;;;31.60;65.60;;;;;;4954856;29;20599;-79
2023/09/19 10:41:58;;;;;;;2.03;0.80;;;31.50;66.10;;;;;;4953228;29;20631;-79
2023/09/19 10:44:25;;;;;;;3.03;1.00;;;31.40;64.60;;;;;;4937096;29;20246;-79
2023/09/19 10:46:52;;;;;;;2.10;0.87;;;31.20;64.60;;;;;;4949050;29;20689;-78
2023/09/19 10:49:22;;;;;;;2.73;0.80;;;31.00;64.60;;;;;;4925429;29;20620;-79
2023/09/19 10:51:51;;;;;;;3.80;0.90;;;30.80;64.80;;;;;;4955331;29;20597;-79
2023/09/19 10:54:26;;;;;;;2.17;0.90;;;30.50;64.10;;;;;;4954969;29;20592;-79
2023/09/19 10:56:53;;;;;;;3.20;1.37;;;30.20;61.70;;;;;;4954981;28;20603;-78
2023/09/19 10:59:21;;;;;;;2.10;0.80;;;29.90;64.40;;;;;;4947526;29;20605;-78
2023/09/19 11:01:47;;;;;;;2.70;1.20;;;29.80;64.90;;;;;;4953050;29;20643;-79
2023/09/19 11:04:35;;;;;;;2.97;1.00;;;29.70;65.70;;;;;;4959606;23;20624;-75
2023/09/19 11:07:03;;;;;;;2.47;0.90;;;29.60;64.70;;;;;;4930575;29;20949;-76
2023/09/19 11:09:57;;;;;;;1.70;0.70;;;29.50;65.40;;;;;;4938792;29;20752;-76
2023/09/19 11:12:29;;;;;;;2.93;0.90;;;29.30;65.00;;;;;;4938070;29;20577;-76
2023/09/19 11:14:55;;;;;;;4.27;0.90;;;29.20;65.90;;;;;;4944097;29;20639;-76
2023/09/19 11:17:21;;;;;;;3.23;1.03;;;29.20;66.40;;;;;;4938845;29;20597;-76
2023/09/19 11:22:53;;;;;;;3.20;0.90;;;28.90;65.40;;;;;;4938261;29;20640;-76
2023/09/19 11:25:43;;;;;;;6.40;1.00;;;28.90;65.60;;;;;;4951251;29;20666;-76
2023/09/19 11:28:08;;;;;;;4.40;1.00;;;29.00;67.40;;;;;;4947134;29;20592;-76
2023/09/19 11:30:39;;;;;;;3.00;1.10;;;29.20;68.10;;;;;;4934990;29;21148;-76
2023/09/19 11:33:33;;;;;;;2.67;0.90;;;29.20;66.70;;;;;;4951149;29;20267;-76
2023/09/19 11:36:02;;;;;;;2.93;0.90;;;29.20;63.70;;;;;;4951231;29;20620;-76
2023/09/19 11:38:49;;;;;;;5.43;1.00;;;29.10;65.40;;;;;;4951137;29;20697;-76
2023/09/19 11:41:31;;;;;;;2.40;1.10;;;28.90;63.00;;;;;;4951153;28;20638;-76
2023/09/19 11:44:06;;;;;;;3.23;1.17;;;28.80;63.30;;;;;;4951980;29;20596;-76
2023/09/19 11:46:52;;;;;;;4.60;1.10;;;28.60;63.70;;;;;;4953272;29;20592;-76
2023/09/19 11:49:21;;;;;;;2.83;1.20;;;28.60;64.40;;;;;;4953502;29;20739;-76
2023/09/19 11:51:50;;;;;;;3.40;1.17;;;28.60;65.90;;;;;;4918991;29;20607;-76
2023/09/19 11:54:28;;;;;;;3.53;1.10;;;28.70;66.50;;;;;;4950773;29;20608;-76
2023/09/19 11:56:55;;;;;;;7.10;2.00;;;28.90;66.30;;;;;;4955304;28;20580;-76
2023/09/19 11:59:27;;;;;;;2.37;1.13;;;29.10;67.10;;;;;;4956398;29;20583;-76
2023/09/19 12:01:58;;;;;;;3.57;1.00;;;29.20;66.30;;;;;;4955978;29;20695;-75
2023/09/19 12:04:37;;;;;;;4.13;0.90;;;29.40;66.50;;;;;;4954422;29;20631;-76
2023/09/19 12:07:15;;;;;;;2.00;0.80;;;29.60;64.80;;;;;;4949868;29;20706;-76
2023/09/19 12:09:47;;;;;;;3.90;1.10;;;29.80;64.20;;;;;;4938678;29;20588;-76
2023/09/19 12:12:33;;;;;;;3.13;1.10;;;30.00;64.20;;;;;;4935308;29;20651;-76
2023/09/19 12:14:59;;;;;;;3.10;0.90;;;30.00;62.00;;;;;;4948983;29;20611;-76
2023/09/19 12:17:44;;;;;;;4.00;0.80;;;30.20;64.10;;;;;;4954351;29;20592;-76
2023/09/19 12:20:13;;;;;;;2.40;1.00;;;30.10;61.50;;;;;;4917032;29;20236;-76
2023/09/19 12:22:46;;;;;;;2.47;1.10;;;30.20;62.00;;;;;;4955256;29;20639;-78
2023/09/19 12:25:13;;;;;;;3.60;1.10;;;30.00;61.00;;;;;;4955374;29;20626;-75
2023/09/19 12:27:46;;;;;;;3.77;1.07;;;30.00;61.40;;;;;;4955457;29;20618;-76
2023/09/19 12:30:20;;;;;;;2.80;0.90;;;29.90;59.30;;;;;;4955282;29;20675;-75
2023/09/19 12:32:49;;;;;;;3.07;1.00;;;29.70;60.60;;;;;;4955177;29;21139;-77
2023/09/19 12:35:34;;;;;;;3.00;0.80;;;29.60;61.00;;;;;;4954200;29;20623;-76
2023/09/19 12:38:00;;;;;;;3.50;0.80;;;29.40;59.30;;;;;;4955314;29;20592;-77
2023/09/19 12:40:32;;;;;;;2.40;0.87;;;29.40;60.10;;;;;;4955137;29;20594;-76
2023/09/19 12:42:59;;;;;;;3.00;1.20;;;29.20;58.90;;;;;;4953595;29;20710;-76
2023/09/19 12:45:25;;;;;;;5.03;0.83;;;29.10;59.50;;;;;;4937829;29;21194;-76
2023/09/19 12:48:31;;;;;;;4.20;1.70;;;28.90;58.90;;;;;;4955221;29;20667;-76
2023/09/19 12:51:12;;;;;;;3.03;1.20;;;28.70;58.70;;;;;;4953857;29;20618;-77
2023/09/19 12:53:46;;;;;;;3.07;1.30;;;28.70;59.10;;;;;;4953527;29;21381;-76
2023/09/19 12:56:15;;;;;;;2.40;0.70;;;28.50;58.70;;;;;;4954692;29;20709;-76
2023/09/19 12:58:50;;;;;;;3.50;0.80;;;28.30;59.20;;;;;;4945784;29;20588;-76
2023/09/19 13:01:17;;;;;;;4.23;0.87;;;28.20;59.10;;;;;;4953471;29;21247;-76
2023/09/19 13:03:42;;;;;;;3.10;0.77;;;28.10;59.50;;;;;;4954518;29;20590;-76
2023/09/19 13:06:09;;;;;;;4.50;1.33;;;28.00;59.20;;;;;;4954468;29;20639;-76
2023/09/19 13:08:42;;;;;;;3.00;1.20;;;27.70;58.80;;;;;;4939919;29;20185;-76